Time;durP1;ratioP1;P1;durP2;ratioP2;P2;SDS_P1;SDS_P2;PMS_P1;PMS_P2;Temp;Humidity;BMP_temperature;BMP_pressure;BME280_temperature;BME280_humidity;BME280_pressure;Samples;Min_cycle;Max_cycle;Signal;HPM_P1;HPM_P2
2022/05/15 00:02:23;;;;;;;23.63;7.00;;;;;;;;;;5013974;28;20037;-63
2022/05/15 00:04:49;;;;;;;21.85;6.75;;;;;;;;;;5016984;28;20069;-62
2022/05/15 00:07:16;;;;;;;27.27;7.22;;;;;;;;;;5010220;28;20077;-62
2022/05/15 00:09:42;;;;;;;23.52;7.07;;;;;;;;;;5008324;28;20112;-62
2022/05/15 00:12:08;;;;;;;23.33;7.60;;;;;;;;;;5007996;28;20049;-62
2022/05/15 00:14:35;;;;;;;22.70;7.13;;;;;;;;;;5012532;28;20045;-63
2022/05/15 00:17:01;;;;;;;16.67;5.70;;;;;;;;;;5008960;28;20050;-63
2022/05/15 00:19:28;;;;;;;15.18;4.68;;;;;;;;;;5008307;28;20061;-63
2022/05/15 00:21:54;;;;;;;9.52;3.53;;;;;;;;;;5008180;28;20057;-63
2022/05/15 00:24:20;;;;;;;7.28;3.30;;;;;;;;;;5010820;28;20088;-62
2022/05/15 00:26:46;;;;;;;8.38;2.88;;;;;;;;;;5009871;28;20100;-62
2022/05/15 00:29:14;;;;;;;7.50;2.92;;;;;;;;;;5010958;28;20038;-62
2022/05/15 00:31:40;;;;;;;9.15;3.10;;;;;;;;;;5007349;28;20049;-62
2022/05/15 00:34:06;;;;;;;10.18;3.25;;;;;;;;;;5013829;28;20501;-62
2022/05/15 00:36:33;;;;;;;12.38;3.97;;;;;;;;;;5011090;28;20160;-63
2022/05/15 00:38:59;;;;;;;10.63;4.30;;;;;;;;;;5011389;28;21406;-63
2022/05/15 00:41:26;;;;;;;12.73;3.50;;;;;;;;;;5016344;28;20038;-63
2022/05/15 00:43:54;;;;;;;8.38;2.60;;;;;;;;;;5012705;28;20045;-62
2022/05/15 00:46:23;;;;;;;6.28;2.70;;;;;;;;;;5011004;28;20158;-62
2022/05/15 00:48:50;;;;;;;10.65;2.75;;;;;;;;;;5014519;28;20112;-63
2022/05/15 00:51:18;;;;;;;12.40;3.42;;;;;;;;;;5014646;28;20046;-62
2022/05/15 00:53:45;;;;;;;9.52;3.17;;;;;;;;;;5011959;28;20113;-63
2022/05/15 00:56:11;;;;;;;8.27;2.50;;;;;;;;;;5015832;28;20038;-62
2022/05/15 00:58:40;;;;;;;7.72;2.58;;;;;;;;;;5015544;28;20117;-62
2022/05/15 01:01:06;;;;;;;9.93;2.95;;;;;;;;;;5012144;28;20116;-63
2022/05/15 01:03:33;;;;;;;9.98;3.22;;;;;;;;;;5011968;28;20044;-63
2022/05/15 01:05:59;;;;;;;13.35;3.67;;;;;;;;;;5012208;28;20069;-62
2022/05/15 01:08:27;;;;;;;10.15;3.72;;;;;;;;;;5013127;28;20167;-62
2022/05/15 01:10:55;;;;;;;9.90;3.20;;;;;;;;;;5010798;28;20048;-63
2022/05/15 01:13:22;;;;;;;10.93;3.17;;;;;;;;;;5013484;28;20038;-62
2022/05/15 01:15:49;;;;;;;11.77;3.80;;;;;;;;;;5010626;28;20044;-63
2022/05/15 01:18:23;;;;;;;11.05;2.95;;;;;;;;;;5000043;28;20100;-62
2022/05/15 01:20:53;;;;;;;10.27;3.35;;;;;;;;;;5012303;28;20045;-63
2022/05/15 01:23:19;;;;;;;8.90;2.83;;;;;;;;;;5012161;28;20060;-62
2022/05/15 01:25:46;;;;;;;15.75;5.28;;;;;;;;;;5014091;28;20184;-62
2022/05/15 01:28:19;;;;;;;11.98;4.70;;;;;;;;;;5011022;28;20046;-62
2022/05/15 01:30:47;;;;;;;17.07;6.13;;;;;;;;;;4994182;28;20096;-62
2022/05/15 01:33:13;;;;;;;15.15;4.70;;;;;;;;;;5013614;28;20057;-63
2022/05/15 01:35:40;;;;;;;11.18;3.50;;;;;;;;;;5013369;28;20049;-63
2022/05/15 01:38:06;;;;;;;12.18;4.45;;;;;;;;;;5016309;28;20049;-63
2022/05/15 01:40:33;;;;;;;18.40;6.05;;;;;;;;;;5011769;28;20149;-62
2022/05/15 01:43:00;;;;;;;15.90;3.60;;;;;;;;;;5011026;28;20501;-63
2022/05/15 01:45:26;;;;;;;19.02;6.88;;;;;;;;;;5012603;28;20397;-63
2022/05/15 01:47:52;;;;;;;16.33;5.72;;;;;;;;;;5011751;28;20037;-63
2022/05/15 01:50:19;;;;;;;12.20;4.50;;;;;;;;;;5014737;28;20053;-62
2022/05/15 01:52:45;;;;;;;14.93;4.13;;;;;;;;;;4998941;28;20136;-62
2022/05/15 01:55:11;;;;;;;9.00;3.08;;;;;;;;;;5010616;28;20046;-63
2022/05/15 01:57:38;;;;;;;8.73;2.75;;;;;;;;;;5012586;28;20486;-63
2022/05/15 02:00:06;;;;;;;15.70;4.68;;;;;;;;;;5012952;28;20469;-62
2022/05/15 02:02:32;;;;;;;17.17;4.93;;;;;;;;;;5012155;28;20041;-62
2022/05/15 02:04:58;;;;;;;20.40;5.45;;;;;;;;;;5014972;28;20442;-62
2022/05/15 02:07:25;;;;;;;21.73;6.65;;;;;;;;;;5014542;28;21061;-63
2022/05/15 02:09:51;;;;;;;32.40;7.50;;;;;;;;;;5011951;28;20041;-62
2022/05/15 02:12:17;;;;;;;30.27;8.35;;;;;;;;;;5013768;28;20037;-63
2022/05/15 02:14:43;;;;;;;19.20;6.45;;;;;;;;;;5013850;28;20097;-62
2022/05/15 02:17:09;;;;;;;17.88;4.72;;;;;;;;;;5009167;28;20078;-62
2022/05/15 02:19:35;;;;;;;20.23;4.60;;;;;;;;;;5013178;28;20501;-62
2022/05/15 02:22:02;;;;;;;13.93;4.25;;;;;;;;;;5015044;28;20492;-62
2022/05/15 02:24:28;;;;;;;10.40;3.75;;;;;;;;;;5009100;28;20474;-62
2022/05/15 02:26:54;;;;;;;13.30;4.60;;;;;;;;;;5002408;28;20052;-62
2022/05/15 02:29:20;;;;;;;13.82;6.07;;;;;;;;;;5010388;28;20034;-63
2022/05/15 02:31:46;;;;;;;16.48;4.20;;;;;;;;;;5009737;28;20092;-63
2022/05/15 02:34:13;;;;;;;17.08;4.20;;;;;;;;;;5011687;28;20045;-62
2022/05/15 02:36:39;;;;;;;12.55;3.45;;;;;;;;;;5014528;28;20064;-62
2022/05/15 02:39:05;;;;;;;15.20;3.33;;;;;;;;;;5005662;28;20116;-63
2022/05/15 02:41:33;;;;;;;9.50;3.10;;;;;;;;;;5008973;28;20604;-62
2022/05/15 02:44:00;;;;;;;9.50;2.90;;;;;;;;;;5009342;28;20048;-63
2022/05/15 02:46:26;;;;;;;12.15;3.05;;;;;;;;;;5010172;28;20355;-63
2022/05/15 02:51:37;;;;;;;8.95;3.85;;;;;;;;;;5003034;28;20498;-63
2022/05/15 02:54:03;;;;;;;9.82;3.95;;;;;;;;;;5011625;28;20482;-62
2022/05/15 02:56:32;;;;;;;11.07;4.32;;;;;;;;;;5016811;28;20037;-63
2022/05/15 02:58:58;;;;;;;14.05;4.40;;;;;;;;;;5007859;28;20477;-63
2022/05/15 03:01:24;;;;;;;7.30;2.67;;;;;;;;;;5011406;28;20133;-62
2022/05/15 03:03:50;;;;;;;9.57;2.67;;;;;;;;;;5011110;28;20057;-62
2022/05/15 03:06:17;;;;;;;13.88;4.63;;;;;;;;;;5010323;28;20457;-63
2022/05/15 03:08:44;;;;;;;20.83;6.85;;;;;;;;;;5008537;28;20172;-62
2022/05/15 03:11:11;;;;;;;18.58;6.15;;;;;;;;;;5009368;28;20045;-62
2022/05/15 03:13:37;;;;;;;22.98;6.53;;;;;;;;;;5011725;28;20049;-62
2022/05/15 03:16:04;;;;;;;23.90;7.63;;;;;;;;;;5010080;28;20154;-62
2022/05/15 03:18:30;;;;;;;23.98;7.00;;;;;;;;;;5012627;28;20098;-62
2022/05/15 03:20:57;;;;;;;8.63;3.40;;;;;;;;;;5012141;28;20045;-63
2022/05/15 03:23:23;;;;;;;11.10;4.05;;;;;;;;;;5007266;28;20037;-61
2022/05/15 03:25:49;;;;;;;14.50;4.65;;;;;;;;;;5007629;28;20439;-63
2022/05/15 03:28:16;;;;;;;21.38;7.20;;;;;;;;;;5008701;28;20046;-62
2022/05/15 03:30:43;;;;;;;22.60;8.10;;;;;;;;;;5011308;28;20041;-62
2022/05/15 03:33:09;;;;;;;28.50;8.43;;;;;;;;;;5009416;28;20053;-63
2022/05/15 03:35:36;;;;;;;27.25;9.13;;;;;;;;;;5009710;28;20164;-62
2022/05/15 03:38:03;;;;;;;27.00;8.55;;;;;;;;;;5010576;28;20050;-62
2022/05/15 03:40:29;;;;;;;29.75;8.98;;;;;;;;;;5010811;28;20382;-63
2022/05/15 03:42:55;;;;;;;30.35;8.23;;;;;;;;;;5013157;28;20375;-62
2022/05/15 03:45:21;;;;;;;28.85;8.60;;;;;;;;;;5009881;28;20359;-63
2022/05/15 03:47:50;;;;;;;30.40;8.85;;;;;;;;;;5011754;28;20082;-63
2022/05/15 03:50:17;;;;;;;18.02;7.13;;;;;;;;;;5008646;28;20121;-63
2022/05/15 03:52:43;;;;;;;29.08;8.73;;;;;;;;;;5010876;28;20052;-62
2022/05/15 03:55:10;;;;;;;31.08;9.13;;;;;;;;;;5011107;28;20370;-63
2022/05/15 03:57:36;;;;;;;28.65;8.05;;;;;;;;;;5013921;28;20041;-63
2022/05/15 04:00:03;;;;;;;28.08;9.68;;;;;;;;;;5012178;28;20053;-62
2022/05/15 04:02:30;;;;;;;28.88;8.77;;;;;;;;;;4994601;28;20038;-62
2022/05/15 04:04:56;;;;;;;27.23;8.52;;;;;;;;;;5009945;28;20346;-62
2022/05/15 04:07:22;;;;;;;30.55;9.75;;;;;;;;;;5010302;28;20057;-63
2022/05/15 04:09:50;;;;;;;30.27;8.40;;;;;;;;;;5010633;28;20042;-62
2022/05/15 04:12:16;;;;;;;32.38;9.23;;;;;;;;;;5014760;28;20061;-62
2022/05/15 04:14:42;;;;;;;36.40;10.25;;;;;;;;;;4995329;28;20038;-62
2022/05/15 04:17:08;;;;;;;29.73;9.35;;;;;;;;;;5017525;28;20401;-62
2022/05/15 04:19:36;;;;;;;28.25;8.63;;;;;;;;;;5018065;28;20073;-62
2022/05/15 04:22:04;;;;;;;29.35;8.38;;;;;;;;;;5015088;28;20040;-62
2022/05/15 04:24:31;;;;;;;28.85;9.32;;;;;;;;;;5012639;28;20054;-62
2022/05/15 04:26:57;;;;;;;34.10;8.40;;;;;;;;;;5012655;28;20065;-63
2022/05/15 04:29:24;;;;;;;29.45;9.07;;;;;;;;;;5012739;28;20096;-62
2022/05/15 04:31:55;;;;;;;30.75;8.32;;;;;;;;;;5003273;28;20540;-62
2022/05/15 04:34:23;;;;;;;29.48;8.15;;;;;;;;;;5013696;28;20052;-62
2022/05/15 04:36:49;;;;;;;35.53;8.82;;;;;;;;;;5011626;28;20154;-63
2022/05/15 04:39:16;;;;;;;27.23;9.23;;;;;;;;;;5016176;28;20049;-63
2022/05/15 04:41:43;;;;;;;27.10;8.35;;;;;;;;;;5013005;28;20060;-62
2022/05/15 04:44:09;;;;;;;25.85;7.40;;;;;;;;;;5012766;28;20053;-63
2022/05/15 04:46:36;;;;;;;41.05;9.27;;;;;;;;;;5017641;28;22187;-62
2022/05/15 04:49:02;;;;;;;28.48;8.05;;;;;;;;;;5011662;28;20388;-62
2022/05/15 04:51:28;;;;;;;32.95;8.35;;;;;;;;;;5010503;28;20042;-61
2022/05/15 04:53:54;;;;;;;31.95;7.60;;;;;;;;;;5015388;28;20474;-68
2022/05/15 04:56:20;;;;;;;31.40;8.18;;;;;;;;;;5015380;28;20370;-62
2022/05/15 04:58:47;;;;;;;30.38;7.28;;;;;;;;;;5014661;28;20049;-62
2022/05/15 05:01:14;;;;;;;31.95;8.10;;;;;;;;;;5016494;28;20108;-63
2022/05/15 05:03:40;;;;;;;35.17;10.25;;;;;;;;;;5012766;28;20045;-63
2022/05/15 05:06:06;;;;;;;31.80;7.75;;;;;;;;;;5011399;28;20061;-62
2022/05/15 05:08:33;;;;;;;28.85;8.60;;;;;;;;;;5009513;28;20045;-63
2022/05/15 05:10:59;;;;;;;26.27;7.63;;;;;;;;;;5013751;28;20122;-62
2022/05/15 05:13:25;;;;;;;31.30;8.63;;;;;;;;;;5011833;28;20449;-62
2022/05/15 05:15:51;;;;;;;35.25;8.75;;;;;;;;;;5011288;28;20184;-62
2022/05/15 05:18:18;;;;;;;25.38;7.90;;;;;;;;;;5010271;28;20398;-63
2022/05/15 05:20:45;;;;;;;28.75;7.80;;;;;;;;;;5012250;28;20042;-63
2022/05/15 05:23:12;;;;;;;35.25;8.75;;;;;;;;;;5015925;28;20381;-62
2022/05/15 05:25:38;;;;;;;31.98;7.28;;;;;;;;;;5014004;28;20133;-63
2022/05/15 05:28:05;;;;;;;27.88;8.30;;;;;;;;;;5015377;28;20126;-62
2022/05/15 05:30:31;;;;;;;32.40;8.27;;;;;;;;;;5016255;28;20486;-63
2022/05/15 05:32:58;;;;;;;35.13;9.25;;;;;;;;;;4998522;28;20062;-63
2022/05/15 05:35:25;;;;;;;36.95;8.38;;;;;;;;;;5015456;28;20044;-63
2022/05/15 05:37:52;;;;;;;31.23;8.82;;;;;;;;;;5011749;28;20050;-63
2022/05/15 05:40:18;;;;;;;33.40;8.68;;;;;;;;;;5004274;28;20085;-62
2022/05/15 05:42:44;;;;;;;36.95;8.77;;;;;;;;;;5020477;28;20045;-62
2022/05/15 05:45:11;;;;;;;37.92;10.02;;;;;;;;;;4997070;28;20046;-62
2022/05/15 05:47:37;;;;;;;33.25;9.35;;;;;;;;;;5014325;28;20041;-62
2022/05/15 05:50:08;;;;;;;27.40;8.20;;;;;;;;;;5018630;28;20100;-63
2022/05/15 05:52:35;;;;;;;37.72;8.93;;;;;;;;;;5013780;28;20049;-63
2022/05/15 05:55:01;;;;;;;36.78;9.13;;;;;;;;;;5010276;28;20410;-62
2022/05/15 05:57:27;;;;;;;35.03;9.15;;;;;;;;;;5010872;28;20169;-62
2022/05/15 05:59:53;;;;;;;34.65;8.77;;;;;;;;;;5014181;28;20124;-63
2022/05/15 06:02:19;;;;;;;32.70;9.05;;;;;;;;;;5010104;28;20133;-63
2022/05/15 06:04:46;;;;;;;32.22;8.55;;;;;;;;;;5011344;28;20038;-63
2022/05/15 06:07:14;;;;;;;35.60;8.95;;;;;;;;;;5016098;28;20064;-63
2022/05/15 06:09:42;;;;;;;35.58;9.13;;;;;;;;;;5012413;28;20037;-63
2022/05/15 06:12:09;;;;;;;28.73;8.10;;;;;;;;;;5012143;28;20041;-63
2022/05/15 06:14:35;;;;;;;31.25;9.43;;;;;;;;;;5008742;28;20137;-63
2022/05/15 06:17:01;;;;;;;32.33;8.02;;;;;;;;;;5010409;28;20037;-63
2022/05/15 06:19:28;;;;;;;36.50;8.80;;;;;;;;;;5012785;28;20465;-63
2022/05/15 06:21:54;;;;;;;32.88;8.13;;;;;;;;;;5018318;28;20038;-63
2022/05/15 06:24:20;;;;;;;29.17;8.00;;;;;;;;;;5010078;28;20529;-63
2022/05/15 06:26:46;;;;;;;32.15;7.85;;;;;;;;;;5013374;28;20450;-63
2022/05/15 06:29:14;;;;;;;32.55;8.48;;;;;;;;;;4993854;28;20046;-63
2022/05/15 06:31:40;;;;;;;32.28;8.63;;;;;;;;;;5010622;28;20205;-63
2022/05/15 06:34:06;;;;;;;33.67;7.38;;;;;;;;;;5010825;28;20687;-63
2022/05/15 06:36:32;;;;;;;34.85;8.20;;;;;;;;;;5000561;28;20525;-63
2022/05/15 06:38:58;;;;;;;33.38;7.78;;;;;;;;;;5012301;28;20120;-63
2022/05/15 06:41:24;;;;;;;27.67;7.75;;;;;;;;;;5013453;28;20045;-63
2022/05/15 06:43:51;;;;;;;28.45;6.97;;;;;;;;;;4993441;28;20474;-63
2022/05/15 06:46:17;;;;;;;27.25;7.82;;;;;;;;;;5014874;28;20053;-63
2022/05/15 06:48:44;;;;;;;33.92;7.53;;;;;;;;;;5015450;28;20675;-63
2022/05/15 06:51:14;;;;;;;30.05;7.13;;;;;;;;;;5013900;28;20053;-63
2022/05/15 06:53:41;;;;;;;33.25;7.93;;;;;;;;;;5015808;28;20409;-63
2022/05/15 06:58:52;;;;;;;29.23;7.70;;;;;;;;;;5013954;28;20053;-63
2022/05/15 07:01:18;;;;;;;32.88;7.75;;;;;;;;;;5012863;28;20048;-63
2022/05/15 07:03:44;;;;;;;37.40;7.78;;;;;;;;;;5016785;28;20046;-63
2022/05/15 07:06:10;;;;;;;28.42;8.18;;;;;;;;;;4999638;28;20493;-63
2022/05/15 07:08:37;;;;;;;35.53;9.63;;;;;;;;;;5011370;28;20066;-63
2022/05/15 07:11:04;;;;;;;39.17;8.18;;;;;;;;;;5013360;28;20114;-63
2022/05/15 07:13:32;;;;;;;25.45;7.13;;;;;;;;;;5013757;28;20065;-63
2022/05/15 07:15:58;;;;;;;24.25;7.15;;;;;;;;;;5016312;28;20042;-63
2022/05/15 07:18:25;;;;;;;26.92;8.25;;;;;;;;;;5013292;28;20125;-63
2022/05/15 07:20:52;;;;;;;33.35;6.90;;;;;;;;;;5012139;28;20160;-63
2022/05/15 07:23:18;;;;;;;25.23;6.45;;;;;;;;;;5011817;28;20461;-61
2022/05/15 07:25:45;;;;;;;32.10;7.20;;;;;;;;;;5016157;28;20046;-63
2022/05/15 07:28:11;;;;;;;28.92;7.53;;;;;;;;;;5012917;28;20041;-63
2022/05/15 07:30:38;;;;;;;28.20;7.47;;;;;;;;;;5009688;28;20057;-62
2022/05/15 07:33:04;;;;;;;27.85;7.07;;;;;;;;;;5019486;28;20046;-63
2022/05/15 07:35:30;;;;;;;30.15;8.32;;;;;;;;;;5014473;28;20114;-63
2022/05/15 07:37:56;;;;;;;27.42;7.07;;;;;;;;;;4996658;28;20037;-63
2022/05/15 07:40:22;;;;;;;24.02;6.00;;;;;;;;;;4998024;28;20053;-63
2022/05/15 07:42:49;;;;;;;26.90;7.45;;;;;;;;;;5013024;28;20042;-63
2022/05/15 07:45:15;;;;;;;28.13;6.72;;;;;;;;;;4999777;28;20512;-63
2022/05/15 07:47:42;;;;;;;27.63;7.10;;;;;;;;;;5021921;28;20120;-63
2022/05/15 07:50:09;;;;;;;28.23;6.85;;;;;;;;;;5000477;28;20045;-63
2022/05/15 07:52:35;;;;;;;23.02;6.00;;;;;;;;;;5015716;28;20072;-62
2022/05/15 07:55:02;;;;;;;31.38;7.60;;;;;;;;;;4996976;28;20088;-63
2022/05/15 07:57:28;;;;;;;27.50;5.60;;;;;;;;;;5022957;28;20045;-63
2022/05/15 07:59:56;;;;;;;25.23;6.97;;;;;;;;;;5016875;28;20354;-63
2022/05/15 08:02:22;;;;;;;24.60;6.00;;;;;;;;;;5012284;28;20200;-63
2022/05/15 08:10:18;;;;;;;31.13;6.20;;;;;;;;;;5021324;28;20046;-62
2022/05/15 08:12:44;;;;;;;27.05;6.97;;;;;;;;;;5022937;28;20054;-63
2022/05/15 08:15:11;;;;;;;22.90;6.70;;;;;;;;;;5015149;28;20410;-63
2022/05/15 08:17:37;;;;;;;26.13;5.80;;;;;;;;;;5015456;28;20113;-62
2022/05/15 08:25:33;;;;;;;27.42;5.75;;;;;;;;;;5024073;28;20050;-63
2022/05/15 08:27:59;;;;;;;22.45;5.82;;;;;;;;;;5020384;28;20339;-63
2022/05/15 08:30:26;;;;;;;22.90;5.85;;;;;;;;;;5020638;28;20038;-62
2022/05/15 08:32:53;;;;;;;23.88;5.65;;;;;;;;;;5013666;28;20088;-62
2022/05/15 08:35:19;;;;;;;28.35;4.82;;;;;;;;;;5015048;28;20054;-63
2022/05/15 08:37:45;;;;;;;22.58;5.80;;;;;;;;;;5019206;28;20040;-63
2022/05/15 08:40:11;;;;;;;22.02;5.40;;;;;;;;;;5019059;28;20048;-63
2022/05/15 08:42:38;;;;;;;18.20;4.57;;;;;;;;;;5025318;28;20068;-63
2022/05/15 08:45:04;;;;;;;18.77;4.78;;;;;;;;;;5016152;28;20037;-63
2022/05/15 08:47:33;;;;;;;21.33;4.72;;;;;;;;;;5016799;28;20060;-63
2022/05/15 08:50:02;;;;;;;22.83;5.22;;;;;;;;;;5013685;28;20080;-63
2022/05/15 08:52:47;;;;;;;20.48;5.38;;;;;;;;;;5013864;28;20077;-63
2022/05/15 08:55:22;;;;;;;20.52;5.53;;;;;;;;;;5016281;28;20044;-63
2022/05/15 08:57:52;;;;;;;19.50;4.90;;;;;;;;;;5018097;28;20050;-63
2022/05/15 09:00:22;;;;;;;22.20;5.82;;;;;;;;;;5024551;28;20375;-63
2022/05/15 09:02:48;;;;;;;22.02;5.00;;;;;;;;;;5017858;28;20041;-63
2022/05/15 09:05:15;;;;;;;17.95;4.35;;;;;;;;;;5015692;28;20100;-63
2022/05/15 09:07:53;;;;;;;27.33;6.10;;;;;;;;;;5023828;28;20084;-63
2022/05/15 09:10:26;;;;;;;29.50;7.03;;;;;;;;;;5014072;28;20521;-63
2022/05/15 09:12:59;;;;;;;21.05;4.82;;;;;;;;;;5015954;28;20085;-63
2022/05/15 09:15:26;;;;;;;;;;;;;;;;;;4997485;28;20100;-64
2022/05/15 09:17:58;;;;;;;27.95;6.05;;;;;;;;;;5019600;28;19944;-63
2022/05/15 09:20:24;;;;;;;26.10;5.82;;;;;;;;;;5013247;28;20046;-62
2022/05/15 09:22:55;;;;;;;24.50;5.82;;;;;;;;;;5019468;28;20049;-61
2022/05/15 09:25:23;;;;;;;21.45;5.00;;;;;;;;;;4996879;28;20489;-61
2022/05/15 09:27:58;;;;;;;20.30;5.45;;;;;;;;;;5014038;28;20954;-62
2022/05/15 09:30:25;;;;;;;27.10;5.75;;;;;;;;;;5011233;28;20124;-62
2022/05/15 09:32:56;;;;;;;21.27;5.28;;;;;;;;;;5002808;28;20188;-62
2022/05/15 09:35:35;;;;;;;19.77;4.72;;;;;;;;;;5010724;28;20053;-63
2022/05/15 09:43:35;;;;;;;19.33;5.00;;;;;;;;;;5011165;28;20057;-62
2022/05/15 09:46:10;;;;;;;24.00;5.38;;;;;;;;;;5018607;28;20103;-63
2022/05/15 09:48:38;;;;;;;18.60;5.00;;;;;;;;;;5001427;28;20046;-62
2022/05/15 09:51:08;;;;;;;20.95;5.47;;;;;;;;;;5021328;28;20088;-63
2022/05/15 09:53:38;;;;;;;20.52;5.15;;;;;;;;;;5015488;28;20053;-63
2022/05/15 09:56:07;;;;;;;19.33;5.22;;;;;;;;;;5006679;28;20103;-63
2022/05/15 09:58:46;;;;;;;19.85;5.13;;;;;;;;;;5016621;28;20060;-63
2022/05/15 10:01:20;;;;;;;17.83;5.03;;;;;;;;;;5013413;28;20054;-63
2022/05/15 10:03:52;;;;;;;19.90;5.38;;;;;;;;;;5016519;28;20046;-63
2022/05/15 10:06:19;;;;;;;20.23;5.43;;;;;;;;;;5016026;28;20041;-63
2022/05/15 10:08:46;;;;;;;15.18;4.82;;;;;;;;;;5012111;28;20053;-63
2022/05/15 10:11:17;;;;;;;22.80;5.35;;;;;;;;;;5010574;28;20365;-63
2022/05/15 10:13:46;;;;;;;20.38;4.70;;;;;;;;;;5013259;28;20038;-63
2022/05/15 10:16:15;;;;;;;17.33;5.07;;;;;;;;;;5010143;28;20853;-64
2022/05/15 10:18:46;;;;;;;19.05;4.75;;;;;;;;;;5015817;28;20088;-64
2022/05/15 10:21:13;;;;;;;16.90;4.50;;;;;;;;;;5014032;28;20044;-64
2022/05/15 10:23:49;;;;;;;18.00;5.13;;;;;;;;;;5017755;28;20041;-64
2022/05/15 10:26:21;;;;;;;18.80;5.07;;;;;;;;;;5017739;28;20448;-64
2022/05/15 10:28:52;;;;;;;22.58;5.10;;;;;;;;;;4997145;28;20657;-64
2022/05/15 10:31:22;;;;;;;17.02;4.72;;;;;;;;;;5020418;28;20048;-64
2022/05/15 10:33:51;;;;;;;19.48;5.50;;;;;;;;;;5017752;28;20135;-64
2022/05/15 10:36:17;;;;;;;19.05;5.50;;;;;;;;;;5019289;28;20042;-64
2022/05/15 10:38:44;;;;;;;18.70;4.93;;;;;;;;;;4999441;28;20111;-64
2022/05/15 10:41:19;;;;;;;15.77;4.43;;;;;;;;;;5015945;28;20038;-64
2022/05/15 10:43:50;;;;;;;16.95;4.78;;;;;;;;;;5013144;28;20049;-64
2022/05/15 10:46:23;;;;;;;21.38;5.47;;;;;;;;;;5016444;28;20057;-64
2022/05/15 10:48:50;;;;;;;17.60;4.65;;;;;;;;;;5020155;28;20057;-64
2022/05/15 10:51:21;;;;;;;16.52;5.03;;;;;;;;;;5019501;28;20462;-63
2022/05/15 10:57:21;;;;;;;18.17;4.70;;;;;;;;;;5009431;28;20050;-64
2022/05/15 10:59:55;;;;;;;16.58;4.72;;;;;;;;;;5019261;28;20041;-64
2022/05/15 11:02:30;;;;;;;22.08;5.07;;;;;;;;;;5020114;28;20551;-63
2022/05/15 11:05:06;;;;;;;17.92;5.00;;;;;;;;;;5018789;28;20129;-64
2022/05/15 11:07:41;;;;;;;17.65;5.45;;;;;;;;;;5016660;28;20127;-64
2022/05/15 11:10:12;;;;;;;17.65;4.97;;;;;;;;;;5015554;28;20041;-64
2022/05/15 11:12:45;;;;;;;15.50;4.75;;;;;;;;;;5011165;28;20516;-64
2022/05/15 11:15:22;;;;;;;18.50;4.40;;;;;;;;;;5016288;28;20040;-64
2022/05/15 11:17:52;;;;;;;17.60;4.70;;;;;;;;;;5011207;28;20045;-64
2022/05/15 11:20:23;;;;;;;18.00;5.20;;;;;;;;;;5012481;28;20053;-64
2022/05/15 11:22:51;;;;;;;18.88;4.82;;;;;;;;;;5024290;28;20081;-64
2022/05/15 11:25:21;;;;;;;20.15;4.55;;;;;;;;;;5014707;28;20429;-65
2022/05/15 11:27:49;;;;;;;16.20;4.85;;;;;;;;;;5027772;28;20057;-64
2022/05/15 11:30:20;;;;;;;22.05;5.40;;;;;;;;;;5016152;28;20115;-64
2022/05/15 11:32:46;;;;;;;16.42;4.20;;;;;;;;;;5029766;28;20041;-64
2022/05/15 11:35:12;;;;;;;16.85;5.20;;;;;;;;;;5018480;28;20422;-64
2022/05/15 11:37:38;;;;;;;20.30;4.97;;;;;;;;;;5004069;28;20115;-64
2022/05/15 11:40:09;;;;;;;13.82;4.22;;;;;;;;;;5000047;28;20045;-64
2022/05/15 11:42:36;;;;;;;21.60;5.32;;;;;;;;;;5024259;28;20045;-64
2022/05/15 11:45:20;;;;;;;19.77;4.65;;;;;;;;;;4999475;28;20057;-64
2022/05/15 11:47:58;;;;;;;20.70;5.47;;;;;;;;;;5013388;28;21676;-64
2022/05/15 11:50:27;;;;;;;16.00;4.28;;;;;;;;;;5012144;28;20045;-64
2022/05/15 11:52:53;;;;;;;18.90;4.40;;;;;;;;;;5015762;28;20092;-63
2022/05/15 11:55:38;;;;;;;14.60;4.75;;;;;;;;;;5014975;28;20155;-64
2022/05/15 11:58:10;;;;;;;17.92;4.95;;;;;;;;;;5000750;28;20398;-65
2022/05/15 12:00:39;;;;;;;16.15;5.22;;;;;;;;;;5013816;28;20038;-64
2022/05/15 12:03:25;;;;;;;16.13;4.40;;;;;;;;;;5013371;28;20217;-64
2022/05/15 12:06:06;;;;;;;24.67;5.47;;;;;;;;;;4996660;28;20748;-64
2022/05/15 12:08:34;;;;;;;15.50;4.47;;;;;;;;;;5013991;28;20034;-65
2022/05/15 12:11:13;;;;;;;16.38;3.92;;;;;;;;;;5015048;28;20054;-65
2022/05/15 12:13:41;;;;;;;14.40;4.50;;;;;;;;;;5004857;28;20084;-65
2022/05/15 12:16:16;;;;;;;16.00;3.85;;;;;;;;;;5011785;28;20423;-65
2022/05/15 12:18:43;;;;;;;16.05;4.10;;;;;;;;;;5008961;28;20038;-65
2022/05/15 12:21:10;;;;;;;17.17;4.22;;;;;;;;;;5014669;28;20057;-64
2022/05/15 12:23:37;;;;;;;15.32;3.72;;;;;;;;;;5016689;28;20034;-64
2022/05/15 12:26:20;;;;;;;20.77;5.10;;;;;;;;;;5018488;28;20148;-64
2022/05/15 12:29:08;;;;;;;18.77;4.95;;;;;;;;;;5013453;28;20042;-64
2022/05/15 12:31:39;;;;;;;14.00;4.50;;;;;;;;;;5017738;28;20053;-64
2022/05/15 12:34:07;;;;;;;15.63;4.85;;;;;;;;;;5016066;28;20405;-64
2022/05/15 12:36:36;;;;;;;12.30;3.85;;;;;;;;;;5022872;28;20045;-65
2022/05/15 12:39:03;;;;;;;11.65;3.15;;;;;;;;;;5020947;28;20036;-65
2022/05/15 12:41:32;;;;;;;15.32;3.60;;;;;;;;;;5018862;28;20123;-65
2022/05/15 12:44:01;;;;;;;13.68;3.92;;;;;;;;;;5011963;28;20042;-64
2022/05/15 12:46:29;;;;;;;14.43;3.90;;;;;;;;;;5012094;28;20046;-65
2022/05/15 12:48:55;;;;;;;12.77;3.95;;;;;;;;;;5016556;28;20049;-65
2022/05/15 12:51:28;;;;;;;15.75;4.00;;;;;;;;;;5018453;28;20037;-65
2022/05/15 12:53:54;;;;;;;15.15;4.25;;;;;;;;;;5017666;28;20102;-65
2022/05/15 12:56:25;;;;;;;12.82;4.05;;;;;;;;;;5013456;28;20433;-65
2022/05/15 12:58:55;;;;;;;13.50;3.97;;;;;;;;;;5017896;28;20068;-65
2022/05/15 13:01:22;;;;;;;15.50;3.78;;;;;;;;;;5021667;28;20045;-64
2022/05/15 13:03:49;;;;;;;11.32;3.70;;;;;;;;;;5022834;28;20033;-64
2022/05/15 13:06:19;;;;;;;10.45;3.42;;;;;;;;;;5017644;28;20135;-65
2022/05/15 13:08:54;;;;;;;12.48;3.30;;;;;;;;;;5017706;28;20038;-64
2022/05/15 13:11:23;;;;;;;13.90;3.53;;;;;;;;;;5015341;28;20405;-65
2022/05/15 13:13:51;;;;;;;14.60;4.60;;;;;;;;;;5001660;28;20048;-64
2022/05/15 13:16:20;;;;;;;15.35;4.15;;;;;;;;;;5013207;28;20053;-64
2022/05/15 13:18:49;;;;;;;12.70;3.78;;;;;;;;;;5018608;28;20041;-64
2022/05/15 13:21:21;;;;;;;13.40;4.15;;;;;;;;;;5017757;28;20038;-64
2022/05/15 13:23:48;;;;;;;11.43;3.58;;;;;;;;;;5014602;28;20055;-64
2022/05/15 13:26:23;;;;;;;13.23;4.03;;;;;;;;;;5016048;28;20072;-64
2022/05/15 13:28:49;;;;;;;14.23;4.05;;;;;;;;;;5016559;28;20131;-64
2022/05/15 13:31:16;;;;;;;12.40;3.70;;;;;;;;;;5012441;28;20494;-64
2022/05/15 13:33:43;;;;;;;14.27;3.78;;;;;;;;;;5013616;28;20140;-64
2022/05/15 13:36:13;;;;;;;14.63;4.13;;;;;;;;;;5012870;28;20038;-65
2022/05/15 13:44:13;;;;;;;12.55;4.00;;;;;;;;;;5014033;28;20053;-64
2022/05/15 13:46:43;;;;;;;12.55;3.92;;;;;;;;;;5012558;28;20064;-64
2022/05/15 13:49:12;;;;;;;21.83;4.70;;;;;;;;;;5014823;28;20078;-64
2022/05/15 13:51:39;;;;;;;11.20;3.72;;;;;;;;;;5014690;28;20159;-64
2022/05/15 13:54:06;;;;;;;12.75;4.15;;;;;;;;;;5010937;28;20086;-64
2022/05/15 13:56:32;;;;;;;11.60;3.97;;;;;;;;;;5017217;28;20433;-64
2022/05/15 13:58:59;;;;;;;15.05;4.20;;;;;;;;;;5014750;28;20343;-64
2022/05/15 14:01:26;;;;;;;10.52;3.53;;;;;;;;;;4999177;28;20396;-64
2022/05/15 14:03:53;;;;;;;12.20;3.30;;;;;;;;;;5012296;28;20183;-64
2022/05/15 14:06:32;;;;;;;12.75;3.78;;;;;;;;;;5013258;28;20112;-64
2022/05/15 14:09:02;;;;;;;9.95;3.10;;;;;;;;;;5012679;28;20426;-63
2022/05/15 14:11:46;;;;;;;16.13;4.07;;;;;;;;;;5019432;28;20049;-64
2022/05/15 14:14:12;;;;;;;11.48;3.30;;;;;;;;;;5017252;28;20045;-64
2022/05/15 14:16:39;;;;;;;10.77;3.10;;;;;;;;;;5016892;28;20046;-64
2022/05/15 14:19:10;;;;;;;11.88;3.75;;;;;;;;;;5004518;28;20119;-64
2022/05/15 14:21:54;;;;;;;12.20;3.92;;;;;;;;;;5016585;28;20323;-64
2022/05/15 14:24:20;;;;;;;8.95;2.90;;;;;;;;;;5021650;28;20049;-64
2022/05/15 14:26:46;;;;;;;13.07;3.63;;;;;;;;;;5020321;28;20038;-64
2022/05/15 14:29:13;;;;;;;11.35;3.65;;;;;;;;;;5014624;28;20073;-64
2022/05/15 14:31:40;;;;;;;13.75;3.35;;;;;;;;;;5012128;28;20049;-64
2022/05/15 14:34:06;;;;;;;13.48;3.85;;;;;;;;;;5016870;28;20133;-64
2022/05/15 14:36:33;;;;;;;13.15;3.92;;;;;;;;;;5016326;28;20179;-64
2022/05/15 14:38:59;;;;;;;13.63;3.50;;;;;;;;;;5013711;28;20049;-64
2022/05/15 14:41:26;;;;;;;11.45;3.03;;;;;;;;;;5013018;28;20464;-64
2022/05/15 14:43:52;;;;;;;14.55;3.60;;;;;;;;;;5015052;28;20061;-64
2022/05/15 14:46:20;;;;;;;15.63;3.88;;;;;;;;;;5013602;28;20413;-64
2022/05/15 14:48:48;;;;;;;10.57;3.28;;;;;;;;;;5010888;28;20052;-64
2022/05/15 14:51:17;;;;;;;11.85;3.50;;;;;;;;;;5012547;28;20266;-64
2022/05/15 14:53:43;;;;;;;13.85;3.70;;;;;;;;;;5012164;28;20048;-64
2022/05/15 14:56:09;;;;;;;13.75;3.92;;;;;;;;;;5009903;28;20045;-64
2022/05/15 14:58:38;;;;;;;12.15;3.15;;;;;;;;;;5008976;28;20049;-64
2022/05/15 15:01:05;;;;;;;11.55;3.58;;;;;;;;;;5009938;28;20098;-64
2022/05/15 15:03:31;;;;;;;12.13;3.58;;;;;;;;;;5011435;28;20133;-64
2022/05/15 15:05:58;;;;;;;14.88;4.03;;;;;;;;;;5011165;28;20058;-64
2022/05/15 15:08:25;;;;;;;17.48;4.22;;;;;;;;;;5013814;28;20095;-64